Time;durP1;ratioP1;P1;durP2;ratioP2;P2;SDS_P1;SDS_P2;PMS_P1;PMS_P2;Temp;Humidity;BMP_temperature;BMP_pressure;BME280_temperature;BME280_humidity;BME280_pressure;Samples;Min_cycle;Max_cycle;Signal;HPM_P1;HPM_P2
2023/09/25 00:00:34;;;;;;;3.60;2.20;;;;;;;11.90;100.00;102152.59;5070153;28;20326;-76
2023/09/25 00:03:02;;;;;;;4.25;2.22;;;;;;;11.87;100.00;102139.47;5070108;28;20056;-77
2023/09/25 00:05:28;;;;;;;6.95;3.10;;;;;;;11.86;100.00;102154.63;5070438;28;20040;-77
2023/09/25 00:07:54;;;;;;;8.15;2.25;;;;;;;11.85;100.00;102152.91;5070140;28;20037;-76
2023/09/25 00:10:20;;;;;;;6.90;2.35;;;;;;;11.82;100.00;102155.81;5069987;28;20170;-76
2023/09/25 00:12:46;;;;;;;4.45;2.30;;;;;;;11.80;100.00;102152.41;5070224;28;20093;-75
2023/09/25 00:15:12;;;;;;;6.00;2.25;;;;;;;11.79;100.00;102158.72;5072326;28;20040;-76
2023/09/25 00:17:37;;;;;;;3.70;2.40;;;;;;;11.77;100.00;102153.50;5074038;28;20032;-76
2023/09/25 00:20:04;;;;;;;3.63;2.20;;;;;;;11.76;100.00;102151.81;5073902;28;20032;-76
2023/09/25 00:22:30;;;;;;;3.00;2.15;;;;;;;11.77;100.00;102156.16;5072037;28;20085;-75
2023/09/25 00:24:56;;;;;;;4.25;2.50;;;;;;;11.77;100.00;102148.16;5073806;28;20074;-76
2023/09/25 00:27:23;;;;;;;3.45;2.30;;;;;;;11.79;100.00;102153.38;5073253;28;20143;-76
2023/09/25 00:29:48;;;;;;;4.32;2.55;;;;;;;11.77;100.00;102144.66;5071948;28;20417;-76
2023/09/25 00:32:14;;;;;;;6.80;2.50;;;;;;;11.76;100.00;102140.28;5072056;28;20181;-76
2023/09/25 00:34:39;;;;;;;3.15;2.03;;;;;;;11.73;100.00;102136.03;5073153;28;20449;-76
2023/09/25 00:37:04;;;;;;;3.42;2.47;;;;;;;11.71;100.00;102135.28;5073421;28;20040;-76
2023/09/25 00:39:30;;;;;;;3.88;2.22;;;;;;;11.70;100.00;102138.06;5073250;28;20033;-76
2023/09/25 00:41:55;;;;;;;3.00;2.20;;;;;;;11.67;100.00;102130.31;5073786;28;20129;-76
2023/09/25 00:44:22;;;;;;;9.73;2.40;;;;;;;11.68;100.00;102129.34;5073357;28;20056;-76
2023/09/25 00:46:48;;;;;;;4.55;2.40;;;;;;;11.69;100.00;102120.38;5073107;28;20207;-76
2023/09/25 00:49:14;;;;;;;3.13;2.05;;;;;;;11.69;100.00;102125.69;5071745;28;20071;-79
2023/09/25 00:51:42;;;;;;;3.42;2.42;;;;;;;11.68;100.00;102129.34;5072686;28;20051;-77
2023/09/25 00:54:07;;;;;;;4.30;2.20;;;;;;;11.64;100.00;102129.59;5072770;28;20032;-77
2023/09/25 00:56:33;;;;;;;6.05;2.33;;;;;;;11.60;100.00;102132.59;5073220;28;20420;-75
2023/09/25 00:58:59;;;;;;;2.90;2.17;;;;;;;11.55;100.00;102132.91;5072834;28;20056;-76
2023/09/25 01:01:25;;;;;;;3.90;2.15;;;;;;;11.55;100.00;102132.06;5073387;28;20454;-77
2023/09/25 01:03:51;;;;;;;7.03;2.40;;;;;;;11.55;100.00;102137.41;5073275;28;20032;-77
2023/09/25 01:06:17;;;;;;;4.90;2.28;;;;;;;11.51;100.00;102136.78;5071243;28;20139;-77
2023/09/25 01:08:43;;;;;;;4.38;2.20;;;;;;;11.49;100.00;102138.69;5072122;28;20061;-77
2023/09/25 01:11:08;;;;;;;4.57;2.45;;;;;;;11.43;100.00;102131.16;5072714;28;20028;-76
2023/09/25 01:13:34;;;;;;;7.38;2.50;;;;;;;11.41;100.00;102133.94;5072350;28;20365;-77
2023/09/25 01:15:59;;;;;;;3.25;2.00;;;;;;;11.37;100.00;102127.13;5070859;28;20033;-77
2023/09/25 01:18:25;;;;;;;6.95;2.33;;;;;;;11.34;100.00;102132.69;5072620;28;20031;-77
2023/09/25 01:20:50;;;;;;;3.33;2.30;;;;;;;11.31;100.00;102127.59;5071981;28;20060;-77
2023/09/25 01:23:16;;;;;;;5.90;2.40;;;;;;;11.28;100.00;102135.81;5072457;28;20420;-77
2023/09/25 01:25:41;;;;;;;6.38;2.40;;;;;;;11.24;100.00;102135.19;5071400;28;20033;-79
2023/09/25 01:28:09;;;;;;;5.22;2.30;;;;;;;11.24;100.00;102129.88;5072551;28;20037;-76
2023/09/25 01:30:34;;;;;;;3.85;2.53;;;;;;;11.20;100.00;102122.22;5072100;28;20029;-77
2023/09/25 01:33:00;;;;;;;5.75;2.33;;;;;;;11.19;100.00;102129.31;5071697;28;20034;-76
2023/09/25 01:35:26;;;;;;;4.55;2.47;;;;;;;11.18;100.00;102132.97;5072138;28;20438;-76
2023/09/25 01:38:00;;;;;;;3.28;2.15;;;;;;;11.18;100.00;102124.97;5072299;28;20044;-76
2023/09/25 01:40:26;;;;;;;5.68;2.20;;;;;;;11.19;100.00;102123.16;5071887;28;20024;-76
2023/09/25 01:42:51;;;;;;;6.85;2.42;;;;;;;11.19;100.00;102124.00;5071162;28;20033;-77
2023/09/25 01:45:19;;;;;;;8.13;2.45;;;;;;;11.19;100.00;102115.16;5071787;28;20101;-77
2023/09/25 01:47:50;;;;;;;4.28;2.33;;;;;;;11.22;100.00;102121.09;5071631;28;20420;-79
2023/09/25 01:50:19;;;;;;;;;;;;;;;11.23;100.00;102132.63;5072110;28;20055;-76
2023/09/25 01:52:47;;;;;;;3.63;2.30;;;;;;;11.26;100.00;102130.59;5071522;28;20046;-79
2023/09/25 01:55:14;;;;;;;7.95;2.40;;;;;;;11.23;100.00;102122.81;5071479;28;20126;-76
2023/09/25 01:57:39;;;;;;;4.07;1.83;;;;;;;11.23;100.00;102117.50;5072200;28;20044;-78
2023/09/25 02:00:09;;;;;;;5.22;2.50;;;;;;;11.21;100.00;102113.22;5074070;28;20060;-75
2023/09/25 02:02:36;;;;;;;5.17;2.20;;;;;;;11.19;100.00;102112.50;5074562;28;20037;-75
2023/09/25 02:05:01;;;;;;;5.63;2.13;;;;;;;11.17;100.00;102109.94;5073487;28;20388;-75
2023/09/25 02:07:27;;;;;;;5.38;2.33;;;;;;;11.21;100.00;102102.56;5073968;28;20029;-77
2023/09/25 02:09:53;;;;;;;5.70;2.33;;;;;;;11.22;100.00;102098.97;5073844;28;20032;-77
2023/09/25 02:12:18;;;;;;;4.80;2.42;;;;;;;11.20;100.00;102083.09;5073925;28;20566;-77
2023/09/25 02:14:43;;;;;;;4.85;2.30;;;;;;;11.17;100.00;102080.66;5074317;28;20039;-75
2023/09/25 02:17:09;;;;;;;3.47;2.17;;;;;;;11.15;100.00;102081.72;5074235;28;20028;-75
2023/09/25 02:19:34;;;;;;;3.25;2.20;;;;;;;11.19;100.00;102084.03;5072534;28;20067;-76
2023/09/25 02:22:00;;;;;;;2.75;2.17;;;;;;;11.20;100.00;102083.09;5074019;28;20024;-75
2023/09/25 02:24:25;;;;;;;5.60;2.10;;;;;;;11.22;100.00;102086.47;5073428;28;20044;-75
2023/09/25 02:26:50;;;;;;;3.08;2.00;;;;;;;11.21;100.00;102081.25;5073761;28;20083;-75
2023/09/25 02:29:16;;;;;;;4.28;2.22;;;;;;;11.24;100.00;102086.38;5073293;28;20032;-78
2023/09/25 02:31:41;;;;;;;3.28;2.00;;;;;;;11.25;100.00;102086.25;5073619;28;20461;-75
2023/09/25 02:34:14;;;;;;;5.72;2.30;;;;;;;11.23;100.00;102085.53;5073406;28;20090;-75
2023/09/25 02:36:39;;;;;;;6.05;2.20;;;;;;;11.20;100.00;102093.75;5071957;28;20033;-75
2023/09/25 02:39:05;;;;;;;3.15;2.10;;;;;;;11.16;100.00;102086.94;5073462;28;20029;-75
2023/09/25 02:41:30;;;;;;;3.00;2.10;;;;;;;11.13;100.00;102081.84;5073532;28;20043;-75
2023/09/25 02:43:56;;;;;;;4.22;2.00;;;;;;;11.10;100.00;102082.06;5073505;28;20484;-75
2023/09/25 02:46:21;;;;;;;6.32;2.35;;;;;;;11.06;100.00;102083.22;5073303;28;20036;-76
2023/09/25 02:48:46;;;;;;;2.72;2.00;;;;;;;11.05;100.00;102090.38;5073213;28;20336;-76
2023/09/25 02:51:12;;;;;;;4.20;2.08;;;;;;;11.02;100.00;102081.78;5073572;28;20475;-76
2023/09/25 02:53:37;;;;;;;2.85;2.08;;;;;;;11.02;100.00;102081.78;5073398;28;20059;-77
2023/09/25 02:56:02;;;;;;;7.63;2.45;;;;;;;11.02;100.00;102081.78;5073335;28;20039;-77
2023/09/25 02:58:28;;;;;;;5.35;2.20;;;;;;;10.99;100.00;102076.66;5073347;28;20032;-77
2023/09/25 03:00:53;;;;;;;4.22;2.20;;;;;;;10.96;100.00;102080.41;5073043;28;20111;-76
2023/09/25 03:03:18;;;;;;;5.63;2.63;;;;;;;10.94;100.00;102076.97;5073164;28;20123;-77
2023/09/25 03:05:44;;;;;;;6.85;2.40;;;;;;;10.92;100.00;102073.59;5073521;28;20028;-77
2023/09/25 03:08:09;;;;;;;5.82;2.10;;;;;;;10.92;100.00;102070.94;5073290;28;20068;-76
2023/09/25 03:10:34;;;;;;;4.15;2.40;;;;;;;10.91;100.00;102075.41;5071793;28;20074;-74
2023/09/25 03:13:00;;;;;;;4.88;2.20;;;;;;;10.90;100.00;102075.53;5072699;28;20033;-75
2023/09/25 03:15:25;;;;;;;4.05;2.50;;;;;;;10.88;100.00;102075.66;5071947;28;20059;-75
2023/09/25 03:17:50;;;;;;;4.43;2.20;;;;;;;10.85;100.00;102070.53;5073362;28;20060;-75
2023/09/25 03:20:16;;;;;;;4.93;2.47;;;;;;;10.84;100.00;102074.16;5073371;28;20090;-75
2023/09/25 03:22:42;;;;;;;3.20;2.13;;;;;;;10.84;100.00;102073.28;5073174;28;20174;-74
2023/09/25 03:25:08;;;;;;;3.75;2.20;;;;;;;10.86;100.00;102074.03;5072981;28;20029;-74
2023/09/25 03:27:34;;;;;;;3.35;2.20;;;;;;;10.84;100.00;102082.13;5073343;28;20384;-77
2023/09/25 03:29:59;;;;;;;4.57;2.10;;;;;;;10.85;100.00;102085.66;5072573;28;20036;-74
2023/09/25 03:32:24;;;;;;;4.72;2.50;;;;;;;10.85;100.00;102081.19;5073476;28;20043;-75
2023/09/25 03:34:50;;;;;;;5.97;2.40;;;;;;;10.86;100.00;102082.03;5073098;28;20036;-76
2023/09/25 03:37:15;;;;;;;5.15;2.60;;;;;;;10.86;100.00;102079.38;5072690;28;20036;-74
2023/09/25 03:39:40;;;;;;;4.60;2.30;;;;;;;10.85;100.00;102081.19;5073020;28;20060;-75
2023/09/25 03:42:06;;;;;;;4.70;2.13;;;;;;;10.84;100.00;102076.81;5071649;28;20075;-75
2023/09/25 03:44:31;;;;;;;6.72;2.45;;;;;;;10.81;100.00;102084.16;5072791;28;20520;-75
2023/09/25 03:46:57;;;;;;;4.88;2.20;;;;;;;10.77;100.00;102089.72;5073027;28;20041;-75
2023/09/25 03:49:22;;;;;;;3.40;2.47;;;;;;;10.75;100.00;102091.63;5073988;28;20457;-74
2023/09/25 03:51:47;;;;;;;3.60;2.45;;;;;;;10.73;100.00;102096.22;5076521;28;20029;-74
2023/09/25 03:54:13;;;;;;;3.20;2.20;;;;;;;10.71;100.00;102105.28;5076335;28;20036;-74
2023/09/25 03:56:38;;;;;;;6.13;2.22;;;;;;;10.70;100.00;102104.44;5076121;28;20130;-75
2023/09/25 03:59:03;;;;;;;3.63;2.20;;;;;;;10.68;100.00;102105.50;5076311;28;20519;-75
2023/09/25 04:01:29;;;;;;;6.72;2.67;;;;;;;10.65;100.00;102100.41;5076303;28;20028;-75
2023/09/25 04:03:55;;;;;;;5.50;2.97;;;;;;;10.61;100.00;102106.88;5076345;28;20449;-75
2023/09/25 04:06:20;;;;;;;9.13;2.58;;;;;;;10.58;100.00;102102.63;5075841;28;20496;-76
2023/09/25 04:08:45;;;;;;;6.22;2.50;;;;;;;10.59;100.00;102107.84;5074950;28;20037;-75
2023/09/25 04:11:11;;;;;;;4.53;2.60;;;;;;;10.57;100.00;102109.75;5076148;28;20039;-75
2023/09/25 04:13:37;;;;;;;5.20;2.92;;;;;;;10.56;100.00;102117.84;5074814;28;20119;-76
2023/09/25 04:16:03;;;;;;;4.05;2.40;;;;;;;10.53;100.00;102115.41;5076199;28;20492;-75
2023/09/25 04:18:29;;;;;;;3.53;2.47;;;;;;;10.54;100.00;102106.47;5076039;28;20449;-75
2023/09/25 04:20:55;;;;;;;4.15;2.70;;;;;;;10.56;100.00;102105.38;5076075;28;20460;-75
2023/09/25 04:23:21;;;;;;;5.75;2.53;;;;;;;10.58;100.00;102099.97;5074727;28;20533;-77
2023/09/25 04:25:53;;;;;;;5.47;2.50;;;;;;;10.60;100.00;102103.38;5075975;28;20120;-75
2023/09/25 04:28:20;;;;;;;6.97;2.42;;;;;;;10.56;100.00;102094.75;5075822;28;20055;-76
2023/09/25 04:30:46;;;;;;;4.85;2.60;;;;;;;10.56;100.00;102108.06;5075866;28;20032;-75
2023/09/25 04:33:14;;;;;;;7.15;2.50;;;;;;;10.53;100.00;102108.28;5075796;28;20036;-77
2023/09/25 04:35:40;;;;;;;3.95;2.42;;;;;;;10.53;100.00;102107.44;5075809;28;20029;-74
2023/09/25 04:38:05;;;;;;;3.85;2.40;;;;;;;10.54;100.00;102109.97;5075471;28;20224;-75
2023/09/25 04:40:30;;;;;;;5.82;2.05;;;;;;;10.55;100.00;102114.34;5076007;28;20032;-75
2023/09/25 04:42:57;;;;;;;4.07;2.70;;;;;;;10.59;100.00;102112.31;5075706;28;20068;-75
2023/09/25 04:45:23;;;;;;;3.22;2.35;;;;;;;10.59;100.00;102107.00;5057280;28;20154;-75
2023/09/25 04:47:52;;;;;;;4.93;2.50;;;;;;;10.58;100.00;102116.81;5075677;28;20045;-75
2023/09/25 04:50:19;;;;;;;4.00;2.30;;;;;;;10.56;100.00;102113.38;5075424;28;20046;-75
2023/09/25 04:52:44;;;;;;;4.80;2.50;;;;;;;10.59;100.00;102125.63;5075887;28;20028;-75
2023/09/25 04:55:12;;;;;;;6.90;2.47;;;;;;;10.56;100.00;102121.34;5075088;28;20122;-75
2023/09/25 04:57:42;;;;;;;9.65;3.85;;;;;;;10.57;100.00;102122.22;5075072;28;20532;-74
2023/09/25 05:00:21;;;;;;;5.28;2.58;;;;;;;10.54;100.00;102117.97;5075061;28;20028;-75
2023/09/25 05:02:48;;;;;;;3.60;2.20;;;;;;;10.51;100.00;102112.00;5075115;28;20028;-76
2023/09/25 05:05:14;;;;;;;5.28;2.72;;;;;;;10.51;100.00;102114.66;5075221;28;20457;-76
2023/09/25 05:07:44;;;;;;;7.63;2.60;;;;;;;10.52;100.00;102119.03;5074510;28;20442;-75
2023/09/25 05:10:11;;;;;;;5.82;2.65;;;;;;;10.50;100.00;102124.47;5075700;28;20028;-75
2023/09/25 05:12:38;;;;;;;8.40;2.75;;;;;;;10.48;100.00;102120.19;5075060;28;20028;-75
2023/09/25 05:15:05;;;;;;;2.80;2.50;;;;;;;10.47;100.00;102124.66;5075132;28;20138;-75
2023/09/25 05:17:31;;;;;;;5.35;2.67;;;;;;;10.48;100.00;102121.06;5074943;28;20032;-77
2023/09/25 05:19:56;;;;;;;5.43;2.50;;;;;;;10.47;100.00;102122.00;5075196;28;20035;-75
2023/09/25 05:22:21;;;;;;;3.92;2.40;;;;;;;10.54;100.00;102127.78;5074540;28;20077;-75
2023/09/25 05:24:48;;;;;;;5.20;2.90;;;;;;;10.56;100.00;102123.19;5074887;28;20044;-75
2023/09/25 05:27:14;;;;;;;6.60;3.25;;;;;;;10.54;100.00;102131.28;5074798;28;20029;-75
2023/09/25 05:29:39;;;;;;;5.32;3.08;;;;;;;10.51;100.00;102138.59;5074714;28;20032;-75
2023/09/25 05:32:04;;;;;;;6.03;2.75;;;;;;;10.49;100.00;102149.34;5074346;28;20033;-75
2023/09/25 05:34:30;;;;;;;3.90;2.70;;;;;;;10.44;100.00;102146.19;5074849;28;20116;-75
2023/09/25 05:36:56;;;;;;;6.05;2.60;;;;;;;10.44;100.00;102145.34;5074567;28;20043;-75
2023/09/25 05:39:24;;;;;;;4.97;2.80;;;;;;;10.41;100.00;102144.56;5074774;28;20024;-75
2023/09/25 05:41:50;;;;;;;5.32;2.90;;;;;;;10.40;100.00;102140.22;5074692;28;20107;-75
2023/09/25 05:44:15;;;;;;;7.32;3.03;;;;;;;10.41;100.00;102138.41;5074739;28;20151;-76
2023/09/25 05:46:41;;;;;;;4.43;2.65;;;;;;;10.38;100.00;102131.47;5074653;28;20063;-74
2023/09/25 05:49:07;;;;;;;6.32;2.60;;;;;;;10.40;100.00;102139.34;5074427;28;20102;-79
2023/09/25 05:51:33;;;;;;;5.03;2.47;;;;;;;10.38;100.00;102134.13;5074224;28;20038;-74
2023/09/25 05:53:59;;;;;;;4.38;2.58;;;;;;;10.40;100.00;102144.69;5074222;28;20035;-75
2023/09/25 05:56:25;;;;;;;5.78;2.53;;;;;;;10.38;100.00;102141.28;5074650;28;20427;-74
2023/09/25 05:58:52;;;;;;;4.38;2.78;;;;;;;10.39;100.00;102135.84;5074185;28;20032;-76
2023/09/25 06:01:18;;;;;;;5.47;2.90;;;;;;;10.44;100.00;102138.19;5074129;28;20362;-75
2023/09/25 06:03:43;;;;;;;7.25;3.20;;;;;;;10.47;100.00;102145.97;5074626;28;20029;-77
2023/09/25 06:06:09;;;;;;;7.07;3.88;;;;;;;10.47;100.00;102148.63;5074368;28;20033;-75
2023/09/25 06:08:34;;;;;;;5.25;3.20;;;;;;;10.48;100.00;102149.47;5074003;28;20077;-75
2023/09/25 06:11:02;;;;;;;8.23;2.90;;;;;;;10.50;100.00;102152.88;5072799;28;20334;-75
2023/09/25 06:13:28;;;;;;;5.43;2.97;;;;;;;10.55;100.00;102158.72;5073271;28;20113;-76
2023/09/25 06:15:54;;;;;;;4.53;2.50;;;;;;;10.55;100.00;102156.06;5073677;28;20483;-75
2023/09/25 06:18:19;;;;;;;3.55;2.60;;;;;;;10.59;100.00;102158.41;5073771;28;20036;-75
2023/09/25 06:20:45;;;;;;;5.43;2.90;;;;;;;10.64;100.00;102167.88;5073825;28;20028;-75
2023/09/25 06:23:10;;;;;;;8.05;2.90;;;;;;;10.68;100.00;102174.72;5074597;28;20034;-75
2023/09/25 06:25:37;;;;;;;6.68;2.70;;;;;;;10.75;100.00;102173.31;5073945;28;20044;-75
2023/09/25 06:28:03;;;;;;;3.20;2.45;;;;;;;10.81;100.00;102182.66;5072421;28;20115;-74
2023/09/25 06:30:30;;;;;;;5.20;2.58;;;;;;;10.87;100.00;102184.94;5074130;28;20029;-74
2023/09/25 06:32:55;;;;;;;6.70;2.78;;;;;;;10.93;100.00;102188.00;5074298;28;20047;-77
2023/09/25 06:35:21;;;;;;;7.40;2.25;;;;;;;10.98;100.00;102185.00;5073501;28;20040;-77
2023/09/25 06:37:47;;;;;;;3.33;2.45;;;;;;;11.06;100.00;102182.66;5073663;28;20051;-77
2023/09/25 06:40:15;;;;;;;9.02;3.10;;;;;;;11.11;100.00;102182.31;5073681;28;20461;-77
2023/09/25 06:42:41;;;;;;;6.80;2.50;;;;;;;11.17;100.00;102176.56;5073137;28;20035;-77
2023/09/25 06:45:07;;;;;;;8.57;3.10;;;;;;;11.23;100.00;102183.25;5073987;28;20052;-77
2023/09/25 06:47:33;;;;;;;6.65;4.45;;;;;;;11.29;100.00;102178.31;5073493;28;20094;-77
2023/09/25 06:49:58;;;;;;;9.95;3.88;;;;;;;11.34;100.00;102177.97;5074168;28;20035;-78
2023/09/25 06:52:24;;;;;;;3.80;2.40;;;;;;;11.38;100.00;102175.97;5073717;28;20108;-78
2023/09/25 06:54:49;;;;;;;5.70;2.58;;;;;;;11.41;100.00;102184.56;5073490;28;20124;-78
2023/09/25 06:57:14;;;;;;;4.15;2.63;;;;;;;11.44;100.00;102179.03;5073382;28;20429;-77
2023/09/25 06:59:40;;;;;;;4.95;2.67;;;;;;;11.49;100.00;102178.69;5073504;28;20060;-77
2023/09/25 07:02:05;;;;;;;4.70;2.78;;;;;;;11.53;100.00;102187.31;5073362;28;20043;-78
2023/09/25 07:04:31;;;;;;;8.60;2.55;;;;;;;11.60;100.00;102196.56;5072072;28;20031;-79
2023/09/25 07:06:56;;;;;;;3.10;2.42;;;;;;;11.64;100.00;102193.56;5073248;28;20036;-78
2023/09/25 07:09:22;;;;;;;13.52;2.88;;;;;;;11.68;100.00;102190.69;5073139;28;20035;-78
2023/09/25 07:11:48;;;;;;;7.93;3.10;;;;;;;11.71;100.00;102183.28;5073692;28;20024;-78
2023/09/25 07:14:14;;;;;;;4.45;2.33;;;;;;;11.75;100.00;102184.78;5073142;28;20036;-77
2023/09/25 07:16:40;;;;;;;8.70;2.53;;;;;;;11.80;100.00;102192.41;5073788;28;20040;-79
2023/09/25 07:19:08;;;;;;;5.25;2.88;;;;;;;11.85;100.00;102190.25;5073150;28;20041;-78
2023/09/25 07:21:35;;;;;;;8.02;2.83;;;;;;;11.91;100.00;102186.28;5073063;28;20451;-80
2023/09/25 07:24:01;;;;;;;5.28;2.58;;;;;;;11.99;100.00;102182.09;5075917;28;20040;-78
2023/09/25 07:26:26;;;;;;;2.85;2.30;;;;;;;12.10;100.00;102175.13;5077141;28;20060;-78
2023/09/25 07:28:51;;;;;;;5.32;2.90;;;;;;;12.22;100.00;102178.66;5077631;28;20033;-79
2023/09/25 07:31:22;;;;;;;4.68;2.75;;;;;;;12.33;100.00;102173.34;5076886;28;20025;-78
2023/09/25 07:33:49;;;;;;;8.13;3.30;;;;;;;12.45;100.00;102172.41;5076752;28;20094;-77
2023/09/25 07:36:19;;;;;;;4.00;2.22;;;;;;;12.56;100.00;102166.22;5076752;28;20039;-78
2023/09/25 07:38:45;;;;;;;11.38;2.63;;;;;;;12.69;100.00;102166.13;5077004;28;20050;-78
2023/09/25 07:41:12;;;;;;;7.75;2.58;;;;;;;12.82;100.00;102172.22;5076808;28;20112;-78
2023/09/25 07:43:38;;;;;;;5.13;2.80;;;;;;;12.95;100.00;102163.22;5076419;28;20036;-80
2023/09/25 07:46:03;;;;;;;3.35;2.55;;;;;;;13.11;100.00;102157.50;5076797;28;20052;-80
2023/09/25 07:48:30;;;;;;;4.57;2.65;;;;;;;13.27;100.00;102151.75;5076980;28;20028;-78
2023/09/25 07:50:58;;;;;;;5.60;2.80;;;;;;;13.41;100.00;102156.84;5076546;28;20037;-79
2023/09/25 07:53:29;;;;;;;5.20;2.55;;;;;;;13.54;100.00;102156.69;5076462;28;20036;-79
2023/09/25 07:55:54;;;;;;;3.47;2.20;;;;;;;13.64;100.00;102168.31;5075547;28;20115;-78
2023/09/25 07:58:20;;;;;;;5.28;2.40;;;;;;;13.68;100.00;102156.41;5076359;28;20501;-79
2023/09/25 08:00:49;;;;;;;9.45;2.30;;;;;;;13.78;100.00;102155.63;5074942;28;20037;-78
2023/09/25 08:03:15;;;;;;;5.82;2.90;;;;;;;13.84;100.00;102164.00;5075767;28;20441;-78
2023/09/25 08:05:41;;;;;;;8.05;2.60;;;;;;;13.88;100.00;102167.25;5076103;28;20121;-80
2023/09/25 08:08:10;;;;;;;3.83;2.20;;;;;;;13.89;100.00;102166.28;5076040;28;20040;-80
2023/09/25 08:10:36;;;;;;;7.70;2.70;;;;;;;13.94;100.00;102169.41;5075961;28;20044;-79
2023/09/25 08:13:01;;;;;;;4.25;2.20;;;;;;;13.97;100.00;102168.31;5075707;28;20028;-80
2023/09/25 08:15:27;;;;;;;4.70;2.40;;;;;;;13.99;100.00;102169.91;5076115;28;20189;-79
2023/09/25 08:17:53;;;;;;;4.40;2.63;;;;;;;14.04;100.00;102170.34;5075876;28;20469;-78
2023/09/25 08:20:20;;;;;;;5.97;2.67;;;;;;;14.17;100.00;102170.16;5075461;28;20028;-78
2023/09/25 08:22:48;;;;;;;4.35;2.25;;;;;;;14.46;100.00;102170.34;5074184;28;20494;-78
2023/09/25 08:25:13;;;;;;;4.80;2.30;;;;;;;14.79;100.00;102179.16;5076138;28;20111;-79
2023/09/25 08:27:39;;;;;;;5.97;2.92;;;;;;;15.14;100.00;102183.22;5075832;28;20063;-78
2023/09/25 08:30:06;;;;;;;4.53;2.58;;;;;;;15.39;100.00;102182.84;5075869;28;20408;-78
2023/09/25 08:32:32;;;;;;;8.93;2.35;;;;;;;15.47;100.00;102180.34;5076610;28;20032;-77
2023/09/25 08:34:58;;;;;;;4.53;2.50;;;;;;;15.58;100.00;102177.50;5073671;28;20036;-76
2023/09/25 08:37:24;;;;;;;8.20;2.58;;;;;;;15.75;100.00;102181.38;5076183;28;20033;-78
2023/09/25 08:39:52;;;;;;;4.22;2.10;;;;;;;15.84;100.00;102191.28;5075964;28;20119;-77
2023/09/25 08:42:20;;;;;;;4.03;2.47;;;;;;;16.14;100.00;102177.84;5075778;28;20044;-77
2023/09/25 08:44:46;;;;;;;4.00;2.22;;;;;;;16.46;100.00;102184.72;5075207;28;20072;-78
2023/09/25 08:47:13;;;;;;;4.38;2.20;;;;;;;16.95;100.00;102184.59;5074557;28;20064;-75
2023/09/25 08:49:42;;;;;;;6.35;2.30;;;;;;;17.42;100.00;102181.75;5074809;28;20028;-75
2023/09/25 08:52:07;;;;;;;5.82;2.10;;;;;;;17.92;100.00;102185.81;5075682;28;20024;-75
2023/09/25 08:54:33;;;;;;;4.85;2.28;;;;;;;18.32;100.00;102187.16;5075500;28;20032;-72
2023/09/25 08:56:59;;;;;;;4.60;2.20;;;;;;;18.61;100.00;102180.59;5075410;28;20044;-76
2023/09/25 08:59:26;;;;;;;6.18;2.15;;;;;;;19.02;100.00;102189.75;5075327;28;20036;-75
2023/09/25 09:01:51;;;;;;;9.07;2.90;;;;;;;19.11;100.00;102189.78;5075781;28;20032;-76
2023/09/25 09:04:16;;;;;;;5.15;2.20;;;;;;;19.41;100.00;102199.16;5074936;28;20166;-75
2023/09/25 09:06:42;;;;;;;6.10;2.40;;;;;;;19.48;100.00;102192.09;5075306;28;20101;-74
2023/09/25 09:09:09;;;;;;;3.53;2.03;;;;;;;20.00;100.00;102185.59;5075258;28;20071;-77
2023/09/25 09:11:35;;;;;;;4.38;2.28;;;;;;;20.19;100.00;102188.97;5074157;28;20060;-74
2023/09/25 09:14:01;;;;;;;7.63;2.30;;;;;;;20.26;100.00;102184.59;5075726;28;20032;-75
2023/09/25 09:16:27;;;;;;;8.45;2.40;;;;;;;20.37;100.00;102186.09;5057409;28;20043;-75
2023/09/25 09:19:07;;;;;;;7.28;2.17;;;;;;;20.38;100.00;102194.03;5074919;28;20381;-75
2023/09/25 09:21:33;;;;;;;6.10;2.42;;;;;;;20.76;100.00;102188.88;5076094;28;20028;-76
2023/09/25 09:23:59;;;;;;;4.10;2.22;;;;;;;20.88;100.00;102191.22;5074783;28;20380;-75
2023/09/25 09:26:25;;;;;;;4.30;2.33;;;;;;;20.85;100.00;102187.00;5075278;28;20171;-76
2023/09/25 09:28:53;;;;;;;3.78;2.05;;;;;;;21.17;100.00;102189.72;5073731;28;20037;-76
2023/09/25 09:31:20;;;;;;;9.13;2.30;;;;;;;21.41;100.00;102189.63;5075212;28;20115;-79
2023/09/25 09:33:47;;;;;;;3.47;2.30;;;;;;;21.54;100.00;102199.03;5074657;28;20037;-78
2023/09/25 09:36:14;;;;;;;10.20;2.15;;;;;;;21.84;100.00;102198.16;5074713;28;20037;-77
2023/09/25 09:38:40;;;;;;;5.15;2.30;;;;;;;21.81;99.50;102201.22;5074830;28;20067;-78
2023/09/25 09:41:07;;;;;;;3.47;2.00;;;;;;;21.49;100.00;102211.22;5074641;28;20043;-76
2023/09/25 09:43:33;;;;;;;4.72;2.40;;;;;;;21.39;100.00;102202.50;5074239;28;20035;-76
2023/09/25 09:46:00;;;;;;;6.97;2.40;;;;;;;21.18;100.00;102203.09;5074281;28;20049;-78
2023/09/25 09:48:29;;;;;;;4.75;2.50;;;;;;;21.34;100.00;102204.03;5074049;28;20029;-76
2023/09/25 09:51:00;;;;;;;3.53;2.28;;;;;;;21.53;100.00;102205.47;5074358;28;20043;-76
2023/09/25 09:53:28;;;;;;;4.57;2.55;;;;;;;22.30;100.00;102199.13;5074403;28;20106;-76
2023/09/25 09:55:58;;;;;;;4.22;2.25;;;;;;;23.22;99.12;102203.38;5073892;28;20477;-75
2023/09/25 09:58:27;;;;;;;7.38;2.38;;;;;;;23.70;93.87;102198.25;5074169;28;20464;-75
2023/09/25 10:00:57;;;;;;;4.32;2.10;;;;;;;23.77;85.21;102198.34;5074727;28;20024;-77
2023/09/25 10:03:24;;;;;;;6.13;2.20;;;;;;;23.35;84.32;102202.72;5072807;28;20024;-76
2023/09/25 10:05:50;;;;;;;6.95;2.40;;;;;;;23.24;91.25;102204.03;5073759;28;20387;-76
2023/09/25 10:08:21;;;;;;;4.03;2.40;;;;;;;23.67;80.35;102216.84;5074547;28;20035;-78
2023/09/25 10:10:52;;;;;;;3.45;2.33;;;;;;;23.28;84.03;102202.63;5074397;28;20036;-78
2023/09/25 10:13:25;;;;;;;10.45;2.10;;;;;;;22.91;86.75;102204.41;5074572;28;20064;-79
2023/09/25 10:16:01;;;;;;;7.55;2.42;;;;;;;22.99;89.14;102193.47;5073825;28;20024;-77
2023/09/25 10:18:27;;;;;;;5.78;2.67;;;;;;;22.96;89.02;102188.44;5074390;28;20115;-78
2023/09/25 10:21:10;;;;;;;6.35;2.42;;;;;;;22.83;91.14;102191.78;5073561;28;20036;-77
2023/09/25 10:23:56;;;;;;;7.25;2.60;;;;;;;22.84;98.46;102198.91;5073863;28;20036;-77
2023/09/25 10:26:24;;;;;;;5.50;2.60;;;;;;;22.84;100.00;102200.75;5073804;28;20036;-77
2023/09/25 10:29:16;;;;;;;6.97;2.15;;;;;;;22.68;100.00;102204.53;5073710;28;20056;-77
2023/09/25 10:31:45;;;;;;;4.22;2.55;;;;;;;22.36;96.16;102201.13;5071771;28;20047;-77
2023/09/25 10:34:11;;;;;;;6.05;2.40;;;;;;;22.12;100.00;102191.31;5073790;28;20472;-78
2023/09/25 10:36:41;;;;;;;6.35;2.50;;;;;;;22.07;100.00;102191.88;5072410;28;20039;-77
2023/09/25 10:39:08;;;;;;;4.82;2.33;;;;;;;21.93;100.00;102198.06;5074208;28;20036;-78
2023/09/25 10:41:34;;;;;;;10.57;2.53;;;;;;;22.13;100.00;102201.16;5073538;28;20116;-79
2023/09/25 10:44:00;;;;;;;5.85;2.60;;;;;;;22.19;100.00;102200.41;5073358;28;20060;-77
2023/09/25 10:46:25;;;;;;;6.07;2.50;;;;;;;22.01;100.00;102198.03;5074423;28;20048;-77
2023/09/25 10:48:51;;;;;;;5.25;2.65;;;;;;;21.57;100.00;102201.38;5073523;28;20039;-78
2023/09/25 10:51:16;;;;;;;8.02;2.85;;;;;;;21.35;100.00;102205.72;5072362;28;20072;-79
2023/09/25 10:53:43;;;;;;;4.90;2.63;;;;;;;20.85;100.00;102203.22;5073524;28;20028;-79
2023/09/25 10:56:11;;;;;;;6.10;2.90;;;;;;;20.47;100.00;102207.50;5073006;28;20120;-80
2023/09/25 10:58:37;;;;;;;6.93;2.70;;;;;;;20.36;100.00;102201.47;5072985;28;20538;-78
2023/09/25 11:01:02;;;;;;;7.30;2.80;;;;;;;20.40;100.00;102212.75;5073345;28;20033;-77
2023/09/25 11:03:27;;;;;;;6.97;2.58;;;;;;;20.42;100.00;102206.19;5073460;28;20409;-79
2023/09/25 11:05:53;;;;;;;6.50;2.63;;;;;;;20.29;100.00;102205.00;5073514;28;20033;-76
2023/09/25 11:08:21;;;;;;;6.55;2.88;;;;;;;20.29;100.00;102205.00;5073503;28;20056;-77
2023/09/25 11:10:46;;;;;;;9.20;3.00;;;;;;;20.42;100.00;102211.59;5073283;28;20546;-79
2023/09/25 11:13:12;;;;;;;7.20;2.65;;;;;;;20.78;100.00;102218.47;5073746;28;20044;-80